sensor_id;sensor_type;location;lat;lon;timestamp;temperature;humidity
17599;DHT22;8918;52.092;5.232;2023-02-28T00:01:12;1.80;99.90
17599;DHT22;8918;52.092;5.232;2023-02-28T00:03:38;1.80;99.90
17599;DHT22;8918;52.092;5.232;2023-02-28T00:06:06;1.80;99.90
17599;DHT22;8918;52.092;5.232;2023-02-28T00:08:32;1.80;99.90
17599;DHT22;8918;52.092;5.232;2023-02-28T00:11:06;1.80;99.90
17599;DHT22;8918;52.092;5.232;2023-02-28T00:13:33;1.90;99.90
17599;DHT22;8918;52.092;5.232;2023-02-28T00:16:06;1.90;99.90
17599;DHT22;8918;52.092;5.232;2023-02-28T00:18:32;2.00;99.90
17599;DHT22;8918;52.092;5.232;2023-02-28T00:20:58;2.00;99.90
17599;DHT22;8918;52.092;5.232;2023-02-28T00:23:24;2.10;99.90
17599;DHT22;8918;52.092;5.232;2023-02-28T00:25:50;2.10;99.90
17599;DHT22;8918;52.092;5.232;2023-02-28T00:28:16;2.20;99.90
17599;DHT22;8918;52.092;5.232;2023-02-28T00:30:42;2.20;99.90
17599;DHT22;8918;52.092;5.232;2023-02-28T00:33:07;2.20;99.90
17599;DHT22;8918;52.092;5.232;2023-02-28T00:35:33;2.30;99.90
17599;DHT22;8918;52.092;5.232;2023-02-28T00:37:58;2.30;99.90
17599;DHT22;8918;52.092;5.232;2023-02-28T00:40:24;2.40;99.90
17599;DHT22;8918;52.092;5.232;2023-02-28T00:42:49;2.40;99.90
17599;DHT22;8918;52.092;5.232;2023-02-28T00:45:15;2.40;99.90
17599;DHT22;8918;52.092;5.232;2023-02-28T00:47:41;2.40;99.90
17599;DHT22;8918;52.092;5.232;2023-02-28T00:50:07;2.40;99.90
17599;DHT22;8918;52.092;5.232;2023-02-28T00:52:32;2.40;99.90
17599;DHT22;8918;52.092;5.232;2023-02-28T00:54:58;2.40;99.90
17599;DHT22;8918;52.092;5.232;2023-02-28T00:57:24;2.50;99.90
17599;DHT22;8918;52.092;5.232;2023-02-28T00:59:49;2.50;99.90
17599;DHT22;8918;52.092;5.232;2023-02-28T01:02:15;2.50;99.90
17599;DHT22;8918;52.092;5.232;2023-02-28T01:04:40;2.60;99.90
17599;DHT22;8918;52.092;5.232;2023-02-28T01:07:06;2.60;99.90
17599;DHT22;8918;52.092;5.232;2023-02-28T01:09:31;2.70;99.90
17599;DHT22;8918;52.092;5.232;2023-02-28T01:11:57;2.70;99.90
17599;DHT22;8918;52.092;5.232;2023-02-28T01:14:23;2.70;99.90
17599;DHT22;8918;52.092;5.232;2023-02-28T01:16:48;2.70;99.90
17599;DHT22;8918;52.092;5.232;2023-02-28T01:19:14;2.70;99.90
17599;DHT22;8918;52.092;5.232;2023-02-28T01:21:39;2.70;99.90
17599;DHT22;8918;52.092;5.232;2023-02-28T01:24:05;2.70;99.90
17599;DHT22;8918;52.092;5.232;2023-02-28T01:26:32;2.70;99.90
17599;DHT22;8918;52.092;5.232;2023-02-28T01:28:58;2.70;99.90
17599;DHT22;8918;52.092;5.232;2023-02-28T01:31:24;2.80;99.90
17599;DHT22;8918;52.092;5.232;2023-02-28T01:33:50;2.80;99.90
17599;DHT22;8918;52.092;5.232;2023-02-28T01:36:21;2.80;99.90
17599;DHT22;8918;52.092;5.232;2023-02-28T01:38:48;2.80;99.90
17599;DHT22;8918;52.092;5.232;2023-02-28T01:41:20;2.80;99.90
17599;DHT22;8918;52.092;5.232;2023-02-28T01:46:12;2.80;99.90
17599;DHT22;8918;52.092;5.232;2023-02-28T01:48:45;2.80;99.90
17599;DHT22;8918;52.092;5.232;2023-02-28T01:51:15;2.80;99.90
17599;DHT22;8918;52.092;5.232;2023-02-28T01:53:47;2.90;99.90
17599;DHT22;8918;52.092;5.232;2023-02-28T01:56:17;2.90;99.90
17599;DHT22;8918;52.092;5.232;2023-02-28T01:58:47;2.90;99.90
17599;DHT22;8918;52.092;5.232;2023-02-28T02:01:13;2.90;99.90
17599;DHT22;8918;52.092;5.232;2023-02-28T02:03:50;2.90;99.90
17599;DHT22;8918;52.092;5.232;2023-02-28T02:06:22;2.90;99.90
17599;DHT22;8918;52.092;5.232;2023-02-28T02:08:48;2.90;99.90
17599;DHT22;8918;52.092;5.232;2023-02-28T02:11:17;2.90;99.90
17599;DHT22;8918;52.092;5.232;2023-02-28T02:36:45;2.80;99.90
17599;DHT22;8918;52.092;5.232;2023-02-28T02:39:38;2.80;99.90
17599;DHT22;8918;52.092;5.232;2023-02-28T02:42:13;2.80;99.90
17599;DHT22;8918;52.092;5.232;2023-02-28T02:44:46;2.80;99.90
17599;DHT22;8918;52.092;5.232;2023-02-28T02:47:17;2.80;99.90
17599;DHT22;8918;52.092;5.232;2023-02-28T02:49:48;2.80;99.90
17599;DHT22;8918;52.092;5.232;2023-02-28T02:52:18;2.90;99.90
17599;DHT22;8918;52.092;5.232;2023-02-28T02:54:47;2.90;99.90
17599;DHT22;8918;52.092;5.232;2023-02-28T02:57:21;2.90;99.90
17599;DHT22;8918;52.092;5.232;2023-02-28T02:59:48;3.00;99.90
17599;DHT22;8918;52.092;5.232;2023-02-28T03:02:16;3.00;99.90
17599;DHT22;8918;52.092;5.232;2023-02-28T03:04:59;3.00;99.90
17599;DHT22;8918;52.092;5.232;2023-02-28T03:07:26;3.00;99.90
17599;DHT22;8918;52.092;5.232;2023-02-28T03:09:55;3.00;99.90
17599;DHT22;8918;52.092;5.232;2023-02-28T03:12:24;3.00;99.90
17599;DHT22;8918;52.092;5.232;2023-02-28T03:15:26;3.10;99.90
17599;DHT22;8918;52.092;5.232;2023-02-28T03:17:59;3.10;99.90
17599;DHT22;8918;52.092;5.232;2023-02-28T03:20:41;3.10;99.90
17599;DHT22;8918;52.092;5.232;2023-02-28T03:23:21;3.10;99.90
17599;DHT22;8918;52.092;5.232;2023-02-28T03:26:00;3.10;99.90
17599;DHT22;8918;52.092;5.232;2023-02-28T03:31:38;3.10;99.90
17599;DHT22;8918;52.092;5.232;2023-02-28T03:34:16;3.10;99.90
17599;DHT22;8918;52.092;5.232;2023-02-28T03:36:57;3.10;99.90
17599;DHT22;8918;52.092;5.232;2023-02-28T03:42:35;3.10;99.90
17599;DHT22;8918;52.092;5.232;2023-02-28T03:45:10;3.10;99.90
17599;DHT22;8918;52.092;5.232;2023-02-28T03:47:49;3.10;99.90
17599;DHT22;8918;52.092;5.232;2023-02-28T03:50:23;3.10;99.90
17599;DHT22;8918;52.092;5.232;2023-02-28T03:52:56;3.10;99.90
17599;DHT22;8918;52.092;5.232;2023-02-28T03:55:29;3.10;99.90
17599;DHT22;8918;52.092;5.232;2023-02-28T03:58:12;3.10;99.90
17599;DHT22;8918;52.092;5.232;2023-02-28T04:00:46;3.10;99.90
17599;DHT22;8918;52.092;5.232;2023-02-28T04:03:14;3.00;99.90
17599;DHT22;8918;52.092;5.232;2023-02-28T04:06:07;3.10;99.90
17599;DHT22;8918;52.092;5.232;2023-02-28T04:08:33;3.00;99.90
17599;DHT22;8918;52.092;5.232;2023-02-28T04:11:35;3.00;99.90
17599;DHT22;8918;52.092;5.232;2023-02-28T04:14:02;3.00;99.90
17599;DHT22;8918;52.092;5.232;2023-02-28T04:16:30;3.00;99.90
17599;DHT22;8918;52.092;5.232;2023-02-28T04:18:56;3.00;99.90
17599;DHT22;8918;52.092;5.232;2023-02-28T04:21:28;3.00;99.90
17599;DHT22;8918;52.092;5.232;2023-02-28T04:23:54;3.00;99.90
17599;DHT22;8918;52.092;5.232;2023-02-28T04:26:19;3.00;99.90
17599;DHT22;8918;52.092;5.232;2023-02-28T04:28:45;3.00;99.90
17599;DHT22;8918;52.092;5.232;2023-02-28T04:31:10;3.00;99.90
17599;DHT22;8918;52.092;5.232;2023-02-28T04:33:36;3.00;99.90
17599;DHT22;8918;52.092;5.232;2023-02-28T04:36:04;3.00;99.90
17599;DHT22;8918;52.092;5.232;2023-02-28T04:38:32;3.00;99.90
17599;DHT22;8918;52.092;5.232;2023-02-28T04:40:59;3.00;99.90
17599;DHT22;8918;52.092;5.232;2023-02-28T04:43:27;3.00;99.90
17599;DHT22;8918;52.092;5.232;2023-02-28T04:45:53;3.00;99.90
17599;DHT22;8918;52.092;5.232;2023-02-28T04:48:25;3.00;99.90
17599;DHT22;8918;52.092;5.232;2023-02-28T04:50:52;3.00;99.90
17599;DHT22;8918;52.092;5.232;2023-02-28T04:53:18;3.00;99.90
17599;DHT22;8918;52.092;5.232;2023-02-28T04:55:44;3.00;99.90
17599;DHT22;8918;52.092;5.232;2023-02-28T04:58:11;3.00;99.90
17599;DHT22;8918;52.092;5.232;2023-02-28T05:00:37;2.90;99.90
17599;DHT22;8918;52.092;5.232;2023-02-28T05:03:02;2.90;99.90
17599;DHT22;8918;52.092;5.232;2023-02-28T05:05:28;2.80;99.90
17599;DHT22;8918;52.092;5.232;2023-02-28T05:07:53;2.80;99.90
17599;DHT22;8918;52.092;5.232;2023-02-28T05:10:21;2.90;99.90
17599;DHT22;8918;52.092;5.232;2023-02-28T05:12:47;2.80;99.90
17599;DHT22;8918;52.092;5.232;2023-02-28T05:15:14;2.80;99.90
17599;DHT22;8918;52.092;5.232;2023-02-28T05:17:40;2.80;99.90
17599;DHT22;8918;52.092;5.232;2023-02-28T05:20:07;2.80;99.90
17599;DHT22;8918;52.092;5.232;2023-02-28T05:22:36;2.70;99.90
17599;DHT22;8918;52.092;5.232;2023-02-28T05:25:03;2.70;99.90
17599;DHT22;8918;52.092;5.232;2023-02-28T05:27:30;2.70;99.90
17599;DHT22;8918;52.092;5.232;2023-02-28T05:29:56;2.80;99.90
17599;DHT22;8918;52.092;5.232;2023-02-28T05:32:21;2.70;99.90
17599;DHT22;8918;52.092;5.232;2023-02-28T05:34:47;2.70;99.90
17599;DHT22;8918;52.092;5.232;2023-02-28T05:37:13;2.60;99.90
17599;DHT22;8918;52.092;5.232;2023-02-28T05:39:39;2.50;99.90
17599;DHT22;8918;52.092;5.232;2023-02-28T05:42:05;2.50;99.90
17599;DHT22;8918;52.092;5.232;2023-02-28T05:44:31;2.40;99.90
17599;DHT22;8918;52.092;5.232;2023-02-28T05:46:57;2.30;99.90
17599;DHT22;8918;52.092;5.232;2023-02-28T05:49:23;2.20;99.90
17599;DHT22;8918;52.092;5.232;2023-02-28T05:51:48;2.20;99.90
17599;DHT22;8918;52.092;5.232;2023-02-28T05:54:14;2.10;99.90
17599;DHT22;8918;52.092;5.232;2023-02-28T05:56:40;2.10;99.90
17599;DHT22;8918;52.092;5.232;2023-02-28T05:59:09;2.10;99.90
17599;DHT22;8918;52.092;5.232;2023-02-28T06:01:44;2.10;99.90
17599;DHT22;8918;52.092;5.232;2023-02-28T06:04:14;2.10;99.90
17599;DHT22;8918;52.092;5.232;2023-02-28T06:06:44;2.00;99.90
17599;DHT22;8918;52.092;5.232;2023-02-28T06:09:10;2.00;99.90
17599;DHT22;8918;52.092;5.232;2023-02-28T06:11:36;2.00;99.90
17599;DHT22;8918;52.092;5.232;2023-02-28T06:14:02;2.00;99.90
17599;DHT22;8918;52.092;5.232;2023-02-28T06:16:30;2.00;99.90
17599;DHT22;8918;52.092;5.232;2023-02-28T06:19:00;2.00;99.90
17599;DHT22;8918;52.092;5.232;2023-02-28T06:21:27;2.00;99.90
17599;DHT22;8918;52.092;5.232;2023-02-28T06:23:54;2.00;99.90
17599;DHT22;8918;52.092;5.232;2023-02-28T06:26:19;1.90;99.90
17599;DHT22;8918;52.092;5.232;2023-02-28T06:28:45;1.80;99.90
17599;DHT22;8918;52.092;5.232;2023-02-28T06:31:14;1.80;99.90
17599;DHT22;8918;52.092;5.232;2023-02-28T06:33:41;1.90;99.90
17599;DHT22;8918;52.092;5.232;2023-02-28T06:36:08;1.80;99.90
17599;DHT22;8918;52.092;5.232;2023-02-28T06:38:34;1.70;99.90
17599;DHT22;8918;52.092;5.232;2023-02-28T06:41:00;1.70;99.90
17599;DHT22;8918;52.092;5.232;2023-02-28T06:43:29;1.80;99.90
17599;DHT22;8918;52.092;5.232;2023-02-28T06:45:56;1.80;99.90
17599;DHT22;8918;52.092;5.232;2023-02-28T06:48:23;1.80;99.90
17599;DHT22;8918;52.092;5.232;2023-02-28T06:50:48;1.80;99.90
17599;DHT22;8918;52.092;5.232;2023-02-28T06:53:14;1.80;99.90
17599;DHT22;8918;52.092;5.232;2023-02-28T06:55:40;1.90;99.90
17599;DHT22;8918;52.092;5.232;2023-02-28T06:58:06;1.90;99.90
17599;DHT22;8918;52.092;5.232;2023-02-28T07:00:43;1.90;99.90
17599;DHT22;8918;52.092;5.232;2023-02-28T07:03:09;1.90;99.90
17599;DHT22;8918;52.092;5.232;2023-02-28T07:05:36;1.90;99.90
17599;DHT22;8918;52.092;5.232;2023-02-28T07:08:03;2.00;99.90
17599;DHT22;8918;52.092;5.232;2023-02-28T07:10:30;2.10;99.90
17599;DHT22;8918;52.092;5.232;2023-02-28T07:12:55;2.10;99.90
17599;DHT22;8918;52.092;5.232;2023-02-28T07:15:21;2.10;99.90
17599;DHT22;8918;52.092;5.232;2023-02-28T07:17:46;2.10;99.90
17599;DHT22;8918;52.092;5.232;2023-02-28T07:20:12;2.10;99.90
17599;DHT22;8918;52.092;5.232;2023-02-28T07:22:38;2.10;99.90
17599;DHT22;8918;52.092;5.232;2023-02-28T07:25:04;2.10;99.90
17599;DHT22;8918;52.092;5.232;2023-02-28T07:27:30;2.10;99.90
17599;DHT22;8918;52.092;5.232;2023-02-28T07:29:56;2.20;99.90
17599;DHT22;8918;52.092;5.232;2023-02-28T07:32:22;2.20;99.90
17599;DHT22;8918;52.092;5.232;2023-02-28T07:34:47;2.10;99.90
17599;DHT22;8918;52.092;5.232;2023-02-28T07:37:14;2.20;99.90
17599;DHT22;8918;52.092;5.232;2023-02-28T07:39:40;2.20;99.90
17599;DHT22;8918;52.092;5.232;2023-02-28T07:42:08;2.20;99.90
17599;DHT22;8918;52.092;5.232;2023-02-28T07:44:37;2.20;99.90
17599;DHT22;8918;52.092;5.232;2023-02-28T07:47:09;2.20;99.90
17599;DHT22;8918;52.092;5.232;2023-02-28T07:49:38;2.20;99.90
17599;DHT22;8918;52.092;5.232;2023-02-28T07:52:07;2.30;99.90
17599;DHT22;8918;52.092;5.232;2023-02-28T07:54:33;2.30;99.90
17599;DHT22;8918;52.092;5.232;2023-02-28T07:56:58;2.30;99.90
17599;DHT22;8918;52.092;5.232;2023-02-28T07:59:24;2.40;99.90
17599;DHT22;8918;52.092;5.232;2023-02-28T08:01:50;2.40;99.90
17599;DHT22;8918;52.092;5.232;2023-02-28T08:04:17;2.40;99.90
17599;DHT22;8918;52.092;5.232;2023-02-28T08:06:43;2.50;99.90
17599;DHT22;8918;52.092;5.232;2023-02-28T08:09:09;2.50;99.90
17599;DHT22;8918;52.092;5.232;2023-02-28T08:11:34;2.50;99.90
17599;DHT22;8918;52.092;5.232;2023-02-28T08:14:00;2.50;99.90
17599;DHT22;8918;52.092;5.232;2023-02-28T08:16:26;2.50;99.90
17599;DHT22;8918;52.092;5.232;2023-02-28T08:18:52;2.60;99.90
17599;DHT22;8918;52.092;5.232;2023-02-28T08:21:18;2.60;99.90
17599;DHT22;8918;52.092;5.232;2023-02-28T08:23:47;2.70;99.90
17599;DHT22;8918;52.092;5.232;2023-02-28T08:26:14;2.70;99.90
17599;DHT22;8918;52.092;5.232;2023-02-28T08:28:40;2.80;99.90
17599;DHT22;8918;52.092;5.232;2023-02-28T08:31:10;2.80;99.90
17599;DHT22;8918;52.092;5.232;2023-02-28T08:33:36;2.90;99.90
17599;DHT22;8918;52.092;5.232;2023-02-28T08:36:02;3.00;99.90
17599;DHT22;8918;52.092;5.232;2023-02-28T08:38:28;3.00;99.90
17599;DHT22;8918;52.092;5.232;2023-02-28T08:41:02;3.00;99.90
17599;DHT22;8918;52.092;5.232;2023-02-28T08:43:28;3.10;99.90
17599;DHT22;8918;52.092;5.232;2023-02-28T08:45:55;3.10;99.90
17599;DHT22;8918;52.092;5.232;2023-02-28T08:48:28;3.20;99.90
17599;DHT22;8918;52.092;5.232;2023-02-28T08:51:15;3.20;99.90
17599;DHT22;8918;52.092;5.232;2023-02-28T08:53:44;3.20;99.90
17599;DHT22;8918;52.092;5.232;2023-02-28T08:56:12;3.30;99.90
17599;DHT22;8918;52.092;5.232;2023-02-28T08:58:40;3.30;99.90
17599;DHT22;8918;52.092;5.232;2023-02-28T09:01:14;3.30;99.90
17599;DHT22;8918;52.092;5.232;2023-02-28T09:03:41;3.30;99.90
17599;DHT22;8918;52.092;5.232;2023-02-28T09:06:07;3.30;99.90
17599;DHT22;8918;52.092;5.232;2023-02-28T09:08:33;3.30;99.90
17599;DHT22;8918;52.092;5.232;2023-02-28T09:10:59;3.30;99.90
17599;DHT22;8918;52.092;5.232;2023-02-28T09:13:25;3.20;99.90
17599;DHT22;8918;52.092;5.232;2023-02-28T09:15:51;3.20;99.90
17599;DHT22;8918;52.092;5.232;2023-02-28T09:18:17;3.30;99.90
17599;DHT22;8918;52.092;5.232;2023-02-28T09:20:43;3.30;99.90
17599;DHT22;8918;52.092;5.232;2023-02-28T09:23:10;3.40;99.90
17599;DHT22;8918;52.092;5.232;2023-02-28T09:25:36;3.50;99.90
17599;DHT22;8918;52.092;5.232;2023-02-28T09:28:02;3.50;99.90
17599;DHT22;8918;52.092;5.232;2023-02-28T09:30:28;3.60;99.90
17599;DHT22;8918;52.092;5.232;2023-02-28T09:32:54;3.80;99.90
17599;DHT22;8918;52.092;5.232;2023-02-28T09:35:24;4.00;99.90
17599;DHT22;8918;52.092;5.232;2023-02-28T09:37:51;4.30;99.90
17599;DHT22;8918;52.092;5.232;2023-02-28T09:40:21;4.70;99.90
17599;DHT22;8918;52.092;5.232;2023-02-28T09:42:51;4.90;99.90
17599;DHT22;8918;52.092;5.232;2023-02-28T09:47:51;5.20;99.90
17599;DHT22;8918;52.092;5.232;2023-02-28T09:53:18;6.00;99.90
17599;DHT22;8918;52.092;5.232;2023-02-28T09:55:51;6.80;99.90
17599;DHT22;8918;52.092;5.232;2023-02-28T09:58:31;7.10;99.90
17599;DHT22;8918;52.092;5.232;2023-02-28T10:01:17;7.40;99.90
17599;DHT22;8918;52.092;5.232;2023-02-28T10:03:51;7.60;99.90
17599;DHT22;8918;52.092;5.232;2023-02-28T10:06:26;7.80;99.90
17599;DHT22;8918;52.092;5.232;2023-02-28T10:09:07;7.90;99.90
17599;DHT22;8918;52.092;5.232;2023-02-28T10:11:36;7.70;99.90
17599;DHT22;8918;52.092;5.232;2023-02-28T10:16:42;6.90;99.90
17599;DHT22;8918;52.092;5.232;2023-02-28T10:21:59;6.80;99.90
17599;DHT22;8918;52.092;5.232;2023-02-28T10:24:34;6.60;99.90
17599;DHT22;8918;52.092;5.232;2023-02-28T10:27:13;6.60;99.90
17599;DHT22;8918;52.092;5.232;2023-02-28T10:29:43;6.70;99.90
17599;DHT22;8918;52.092;5.232;2023-02-28T10:32:13;6.90;99.90
17599;DHT22;8918;52.092;5.232;2023-02-28T10:34:39;7.00;99.90
17599;DHT22;8918;52.092;5.232;2023-02-28T10:37:05;7.60;99.90
17599;DHT22;8918;52.092;5.232;2023-02-28T10:39:46;8.90;99.90
17599;DHT22;8918;52.092;5.232;2023-02-28T10:42:22;10.00;99.90
17599;DHT22;8918;52.092;5.232;2023-02-28T10:45:15;11.80;99.90
17599;DHT22;8918;52.092;5.232;2023-02-28T10:47:59;13.60;96.80
17599;DHT22;8918;52.092;5.232;2023-02-28T10:53:22;15.00;93.20
17599;DHT22;8918;52.092;5.232;2023-02-28T11:04:01;15.90;88.00
17599;DHT22;8918;52.092;5.232;2023-02-28T11:06:32;15.80;87.90
17599;DHT22;8918;52.092;5.232;2023-02-28T11:09:20;15.70;86.30
17599;DHT22;8918;52.092;5.232;2023-02-28T11:11:49;15.50;84.30
17599;DHT22;8918;52.092;5.232;2023-02-28T11:14:27;16.20;85.30
17599;DHT22;8918;52.092;5.232;2023-02-28T11:16:54;16.80;81.00
17599;DHT22;8918;52.092;5.232;2023-02-28T11:19:29;16.20;80.40
17599;DHT22;8918;52.092;5.232;2023-02-28T11:21:59;15.90;80.10
17599;DHT22;8918;52.092;5.232;2023-02-28T11:24:35;16.30;80.60
17599;DHT22;8918;52.092;5.232;2023-02-28T11:27:02;16.10;81.80
17599;DHT22;8918;52.092;5.232;2023-02-28T11:29:30;15.80;80.70
17599;DHT22;8918;52.092;5.232;2023-02-28T11:32:05;16.60;79.00
17599;DHT22;8918;52.092;5.232;2023-02-28T11:34:36;16.70;77.90
17599;DHT22;8918;52.092;5.232;2023-02-28T11:37:02;15.70;81.10
17599;DHT22;8918;52.092;5.232;2023-02-28T11:39:31;15.50;81.90
17599;DHT22;8918;52.092;5.232;2023-02-28T11:45:15;15.30;81.00
17599;DHT22;8918;52.092;5.232;2023-02-28T11:48:18;15.20;81.00
17599;DHT22;8918;52.092;5.232;2023-02-28T11:51:15;16.00;81.00
17599;DHT22;8918;52.092;5.232;2023-02-28T11:57:00;16.20;79.00
17599;DHT22;8918;52.092;5.232;2023-02-28T12:08:18;16.70;76.70
17599;DHT22;8918;52.092;5.232;2023-02-28T12:16:33;17.30;74.10
17599;DHT22;8918;52.092;5.232;2023-02-28T12:19:25;17.60;75.20
17599;DHT22;8918;52.092;5.232;2023-02-28T12:26:57;18.10;72.50
17599;DHT22;8918;52.092;5.232;2023-02-28T12:29:29;18.10;74.20
17599;DHT22;8918;52.092;5.232;2023-02-28T12:32:06;18.40;70.90
17599;DHT22;8918;52.092;5.232;2023-02-28T12:34:41;18.40;71.20
17599;DHT22;8918;52.092;5.232;2023-02-28T12:37:17;18.30;71.00
17599;DHT22;8918;52.092;5.232;2023-02-28T12:39:51;18.10;70.60
17599;DHT22;8918;52.092;5.232;2023-02-28T12:42:39;17.80;70.30
17599;DHT22;8918;52.092;5.232;2023-02-28T12:45:31;17.60;71.20
17599;DHT22;8918;52.092;5.232;2023-02-28T12:48:06;17.30;70.10
17599;DHT22;8918;52.092;5.232;2023-02-28T12:50:33;16.20;71.20
17599;DHT22;8918;52.092;5.232;2023-02-28T12:53:15;16.00;71.80
17599;DHT22;8918;52.092;5.232;2023-02-28T12:58:36;15.40;73.70
17599;DHT22;8918;52.092;5.232;2023-02-28T13:01:06;14.70;74.80
17599;DHT22;8918;52.092;5.232;2023-02-28T13:06:53;14.90;74.40
17599;DHT22;8918;52.092;5.232;2023-02-28T13:09:23;15.10;74.40
17599;DHT22;8918;52.092;5.232;2023-02-28T13:11:53;15.00;74.60
17599;DHT22;8918;52.092;5.232;2023-02-28T13:19:32;13.80;75.80
17599;DHT22;8918;52.092;5.232;2023-02-28T13:21:59;13.70;76.20
17599;DHT22;8918;52.092;5.232;2023-02-28T13:24:41;13.60;77.10
17599;DHT22;8918;52.092;5.232;2023-02-28T13:34:32;14.60;75.70
17599;DHT22;8918;52.092;5.232;2023-02-28T13:47:39;13.60;77.70
17599;DHT22;8918;52.092;5.232;2023-02-28T13:56:08;13.20;78.60
17599;DHT22;8918;52.092;5.232;2023-02-28T13:58:53;13.00;80.60
17599;DHT22;8918;52.092;5.232;2023-02-28T14:01:31;12.90;80.50
17599;DHT22;8918;52.092;5.232;2023-02-28T14:07:23;12.90;78.00
17599;DHT22;8918;52.092;5.232;2023-02-28T14:10:23;12.90;77.20
17599;DHT22;8918;52.092;5.232;2023-02-28T14:12:59;13.80;78.40
17599;DHT22;8918;52.092;5.232;2023-02-28T14:15:54;14.60;75.30
17599;DHT22;8918;52.092;5.232;2023-02-28T14:18:27;15.00;75.30
17599;DHT22;8918;52.092;5.232;2023-02-28T14:20:58;14.60;73.80
17599;DHT22;8918;52.092;5.232;2023-02-28T14:28:59;12.10;77.40
17599;DHT22;8918;52.092;5.232;2023-02-28T14:31:37;11.60;78.20
17599;DHT22;8918;52.092;5.232;2023-02-28T14:37:00;11.20;80.50
17599;DHT22;8918;52.092;5.232;2023-02-28T14:39:27;11.00;80.90
17599;DHT22;8918;52.092;5.232;2023-02-28T14:41:57;10.80;82.00
17599;DHT22;8918;52.092;5.232;2023-02-28T14:44:28;10.60;83.00
17599;DHT22;8918;52.092;5.232;2023-02-28T14:47:01;10.40;82.20
17599;DHT22;8918;52.092;5.232;2023-02-28T14:49:42;10.30;83.00
17599;DHT22;8918;52.092;5.232;2023-02-28T14:54:36;9.90;84.50
17599;DHT22;8918;52.092;5.232;2023-02-28T14:57:02;9.80;84.90
17599;DHT22;8918;52.092;5.232;2023-02-28T14:59:31;9.70;84.80
17599;DHT22;8918;52.092;5.232;2023-02-28T15:04:41;9.60;85.40
17599;DHT22;8918;52.092;5.232;2023-02-28T15:07:13;9.60;83.80
17599;DHT22;8918;52.092;5.232;2023-02-28T15:09:39;9.80;84.40
17599;DHT22;8918;52.092;5.232;2023-02-28T15:12:05;9.90;84.80
17599;DHT22;8918;52.092;5.232;2023-02-28T15:14:32;10.00;85.50
17599;DHT22;8918;52.092;5.232;2023-02-28T15:17:06;9.80;85.10
17599;DHT22;8918;52.092;5.232;2023-02-28T15:19:34;9.70;86.50
17599;DHT22;8918;52.092;5.232;2023-02-28T15:22:07;9.40;86.60
17599;DHT22;8918;52.092;5.232;2023-02-28T15:24:50;9.30;86.80
17599;DHT22;8918;52.092;5.232;2023-02-28T15:27:26;9.40;87.90
17599;DHT22;8918;52.092;5.232;2023-02-28T15:29:57;9.60;86.30
17599;DHT22;8918;52.092;5.232;2023-02-28T15:32:31;9.60;86.70
17599;DHT22;8918;52.092;5.232;2023-02-28T15:34:57;9.60;86.30
17599;DHT22;8918;52.092;5.232;2023-02-28T15:37:27;9.50;85.50
17599;DHT22;8918;52.092;5.232;2023-02-28T15:39:57;9.30;86.10
17599;DHT22;8918;52.092;5.232;2023-02-28T15:42:27;9.20;86.10
17599;DHT22;8918;52.092;5.232;2023-02-28T15:44:53;9.10;85.10
17599;DHT22;8918;52.092;5.232;2023-02-28T15:47:24;9.10;86.60
17599;DHT22;8918;52.092;5.232;2023-02-28T15:49:53;8.80;85.40
17599;DHT22;8918;52.092;5.232;2023-02-28T15:52:24;8.80;86.30
17599;DHT22;8918;52.092;5.232;2023-02-28T15:54:51;8.70;86.90
17599;DHT22;8918;52.092;5.232;2023-02-28T15:57:25;8.50;87.80
17599;DHT22;8918;52.092;5.232;2023-02-28T15:59:55;8.40;88.30
17599;DHT22;8918;52.092;5.232;2023-02-28T16:02:29;8.20;88.30
17599;DHT22;8918;52.092;5.232;2023-02-28T16:07:28;8.00;89.00
17599;DHT22;8918;52.092;5.232;2023-02-28T16:09:54;8.00;90.10
17599;DHT22;8918;52.092;5.232;2023-02-28T16:12:26;7.90;89.70
17599;DHT22;8918;52.092;5.232;2023-02-28T16:14:52;7.90;90.10
17599;DHT22;8918;52.092;5.232;2023-02-28T16:17:25;7.80;90.30
17599;DHT22;8918;52.092;5.232;2023-02-28T16:19:52;7.80;90.30
17599;DHT22;8918;52.092;5.232;2023-02-28T16:22:18;7.80;90.30
17599;DHT22;8918;52.092;5.232;2023-02-28T16:24:43;7.70;90.40
17599;DHT22;8918;52.092;5.232;2023-02-28T16:29:42;7.60;90.60
17599;DHT22;8918;52.092;5.232;2023-02-28T16:32:07;7.50;90.70
17599;DHT22;8918;52.092;5.232;2023-02-28T16:34:33;7.50;91.20
17599;DHT22;8918;52.092;5.232;2023-02-28T16:36:59;7.40;91.30
17599;DHT22;8918;52.092;5.232;2023-02-28T16:39:24;7.40;91.60
17599;DHT22;8918;52.092;5.232;2023-02-28T16:41:51;7.40;91.40
17599;DHT22;8918;52.092;5.232;2023-02-28T16:44:28;7.40;91.70
17599;DHT22;8918;52.092;5.232;2023-02-28T16:46:54;7.30;91.70
17599;DHT22;8918;52.092;5.232;2023-02-28T16:49:20;7.30;92.10
17599;DHT22;8918;52.092;5.232;2023-02-28T16:51:46;7.20;92.00
17599;DHT22;8918;52.092;5.232;2023-02-28T16:54:12;7.20;92.10
17599;DHT22;8918;52.092;5.232;2023-02-28T16:56:41;7.10;92.40
17599;DHT22;8918;52.092;5.232;2023-02-28T16:59:09;7.10;92.60
17599;DHT22;8918;52.092;5.232;2023-02-28T17:01:35;7.10;92.80
17599;DHT22;8918;52.092;5.232;2023-02-28T17:04:01;7.00;93.10
17599;DHT22;8918;52.092;5.232;2023-02-28T17:06:28;6.90;93.10
17599;DHT22;8918;52.092;5.232;2023-02-28T17:08:54;6.90;93.20
17599;DHT22;8918;52.092;5.232;2023-02-28T17:11:20;6.80;93.30
17599;DHT22;8918;52.092;5.232;2023-02-28T17:13:46;6.80;93.80
17599;DHT22;8918;52.092;5.232;2023-02-28T17:16:29;6.70;93.80
17599;DHT22;8918;52.092;5.232;2023-02-28T17:19:04;6.60;93.70
17599;DHT22;8918;52.092;5.232;2023-02-28T17:21:30;6.60;94.30
17599;DHT22;8918;52.092;5.232;2023-02-28T17:23:56;6.50;94.00
17599;DHT22;8918;52.092;5.232;2023-02-28T17:26:23;6.40;94.30
17599;DHT22;8918;52.092;5.232;2023-02-28T17:28:52;6.40;94.50
17599;DHT22;8918;52.092;5.232;2023-02-28T17:31:20;6.30;94.60
17599;DHT22;8918;52.092;5.232;2023-02-28T17:33:45;6.20;94.70
17599;DHT22;8918;52.092;5.232;2023-02-28T17:36:15;6.20;94.60
17599;DHT22;8918;52.092;5.232;2023-02-28T17:38:41;6.10;95.10
17599;DHT22;8918;52.092;5.232;2023-02-28T17:41:10;6.10;95.30
17599;DHT22;8918;52.092;5.232;2023-02-28T17:43:35;6.00;95.40
17599;DHT22;8918;52.092;5.232;2023-02-28T17:46:01;6.00;95.70
17599;DHT22;8918;52.092;5.232;2023-02-28T17:48:27;6.00;95.90
17599;DHT22;8918;52.092;5.232;2023-02-28T17:50:53;5.90;96.20
17599;DHT22;8918;52.092;5.232;2023-02-28T17:53:19;5.90;96.80
17599;DHT22;8918;52.092;5.232;2023-02-28T17:55:48;5.80;96.80
17599;DHT22;8918;52.092;5.232;2023-02-28T17:58:14;5.80;97.40
17599;DHT22;8918;52.092;5.232;2023-02-28T18:00:40;5.70;97.70
17599;DHT22;8918;52.092;5.232;2023-02-28T18:03:06;5.60;98.10
17599;DHT22;8918;52.092;5.232;2023-02-28T18:05:32;5.60;98.50
17599;DHT22;8918;52.092;5.232;2023-02-28T18:07:58;5.50;98.40
17599;DHT22;8918;52.092;5.232;2023-02-28T18:10:23;5.50;98.80
17599;DHT22;8918;52.092;5.232;2023-02-28T18:12:51;5.40;99.00
17599;DHT22;8918;52.092;5.232;2023-02-28T18:15:18;5.40;98.90
17599;DHT22;8918;52.092;5.232;2023-02-28T18:17:46;5.30;99.00
17599;DHT22;8918;52.092;5.232;2023-02-28T18:20:12;5.20;99.40
17599;DHT22;8918;52.092;5.232;2023-02-28T18:22:39;5.20;99.70
17599;DHT22;8918;52.092;5.232;2023-02-28T18:25:06;5.10;99.90
17599;DHT22;8918;52.092;5.232;2023-02-28T18:27:34;5.00;99.90
17599;DHT22;8918;52.092;5.232;2023-02-28T18:29:59;5.00;99.90
17599;DHT22;8918;52.092;5.232;2023-02-28T18:32:25;4.90;99.90